Time;durP1;ratioP1;P1;durP2;ratioP2;P2;SDS_P1;SDS_P2;PMS_P1;PMS_P2;Temp;Humidity;BMP_temperature;BMP_pressure;BME280_temperature;BME280_humidity;BME280_pressure;Samples;Min_cycle;Max_cycle;Signal;HPM_P1;HPM_P2
2023/07/27 00:00:52;;;;;;;3.78;3.22;;;13.80;99.90;;;;;;6237728;28;20532;-83
2023/07/27 00:03:54;;;;;;;6.32;2.78;;;13.80;99.90;;;;;;6240085;28;20049;-83
2023/07/27 00:06:56;;;;;;;7.85;3.70;;;13.70;99.90;;;;;;6248480;28;20113;-84
2023/07/27 00:09:58;;;;;;;9.05;3.50;;;13.70;99.90;;;;;;6244662;28;20053;-83
2023/07/27 00:13:01;;;;;;;5.35;4.57;;;13.60;99.90;;;;;;6248110;28;20053;-84
2023/07/27 00:16:03;;;;;;;5.25;3.25;;;13.60;99.90;;;;;;6228063;28;20059;-83
2023/07/27 00:19:04;;;;;;;8.35;4.35;;;13.50;99.90;;;;;;6226932;28;20505;-84
2023/07/27 00:22:06;;;;;;;8.65;4.13;;;13.50;99.90;;;;;;6227829;28;20041;-83
2023/07/27 00:25:08;;;;;;;6.65;4.35;;;13.40;99.90;;;;;;6236827;28;20050;-81
2023/07/27 00:28:11;;;;;;;4.90;3.83;;;13.40;99.90;;;;;;6229153;28;20069;-82
2023/07/27 00:31:13;;;;;;;4.60;4.13;;;13.40;99.90;;;;;;6226972;28;20418;-82
2023/07/27 00:34:15;;;;;;;8.75;4.28;;;13.30;99.90;;;;;;6227302;28;20049;-82
2023/07/27 00:37:16;;;;;;;4.57;4.18;;;13.30;99.90;;;;;;6226465;28;20057;-82
2023/07/27 00:40:18;;;;;;;4.78;4.38;;;13.20;99.90;;;;;;6232916;28;20061;-83
2023/07/27 00:43:21;;;;;;;6.15;3.78;;;13.20;99.90;;;;;;6244609;28;20053;-84
2023/07/27 00:46:23;;;;;;;4.57;3.85;;;13.20;99.90;;;;;;6244534;28;20041;-82
2023/07/27 00:49:25;;;;;;;6.88;4.32;;;13.20;99.90;;;;;;6238351;28;20072;-83
2023/07/27 00:52:27;;;;;;;12.73;5.07;;;13.20;99.90;;;;;;6240693;28;20042;-84
2023/07/27 00:55:28;;;;;;;5.55;5.03;;;13.20;99.90;;;;;;6238654;28;20042;-84
2023/07/27 00:58:33;;;;;;;8.73;4.13;;;13.20;99.90;;;;;;6249473;28;20053;-84
2023/07/27 01:01:34;;;;;;;5.90;3.70;;;13.10;99.90;;;;;;6241655;28;20046;-85
2023/07/27 01:04:37;;;;;;;6.90;4.35;;;13.10;99.90;;;;;;6241429;28;20529;-84
2023/07/27 01:07:38;;;;;;;6.43;4.25;;;13.10;99.90;;;;;;6235673;28;20046;-84
2023/07/27 01:10:48;;;;;;;4.30;3.88;;;13.10;99.90;;;;;;6229179;28;20071;-85
2023/07/27 01:13:57;;;;;;;4.07;3.67;;;13.10;99.90;;;;;;6232096;28;20054;-84
2023/07/27 01:17:04;;;;;;;8.95;4.78;;;13.00;99.90;;;;;;6232687;28;20365;-83
2023/07/27 01:20:24;;;;;;;8.52;4.28;;;13.00;99.90;;;;;;6230894;28;20421;-82
2023/07/27 01:24:04;;;;;;;3.92;3.55;;;13.00;99.90;;;;;;6226884;28;20050;-84
2023/07/27 01:27:46;;;;;;;15.30;4.47;;;13.00;99.90;;;;;;6225287;28;20477;-82
2023/07/27 01:30:57;;;;;;;6.65;4.55;;;13.00;99.90;;;;;;6173177;28;20558;-84
2023/07/27 01:34:02;;;;;;;6.10;4.10;;;13.00;99.90;;;;;;6173983;28;20039;-83
2023/07/27 01:37:06;;;;;;;5.53;5.03;;;13.00;99.90;;;;;;6225199;28;20052;-84
2023/07/27 01:40:11;;;;;;;8.45;5.03;;;13.00;99.90;;;;;;6225410;28;20050;-85
2023/07/27 01:43:14;;;;;;;4.93;4.43;;;13.10;99.90;;;;;;6236921;28;20053;-83
2023/07/27 01:46:18;;;;;;;6.10;4.45;;;13.10;99.90;;;;;;6227247;28;20046;-84
2023/07/27 01:49:22;;;;;;;9.27;4.32;;;13.10;99.90;;;;;;6230517;28;20053;-85
2023/07/27 01:52:26;;;;;;;11.90;5.40;;;13.10;99.90;;;;;;6231381;28;20045;-84
2023/07/27 01:55:29;;;;;;;5.90;4.15;;;13.10;99.90;;;;;;6230938;28;20065;-82
2023/07/27 01:58:31;;;;;;;5.85;4.20;;;13.20;99.90;;;;;;6231308;28;20389;-83
2023/07/27 02:01:35;;;;;;;6.50;4.82;;;13.30;99.90;;;;;;6229850;28;20508;-83
2023/07/27 02:04:37;;;;;;;5.75;4.65;;;13.30;99.90;;;;;;6230906;28;20129;-84
2023/07/27 02:07:38;;;;;;;4.60;4.22;;;13.30;99.90;;;;;;6228408;28;20038;-85
2023/07/27 02:10:42;;;;;;;5.32;4.82;;;13.40;99.90;;;;;;6229351;28;20061;-84
2023/07/27 02:13:48;;;;;;;5.72;4.68;;;13.40;99.90;;;;;;6226822;28;20397;-85
2023/07/27 02:16:54;;;;;;;9.48;4.53;;;13.50;99.90;;;;;;6237492;28;20060;-83
2023/07/27 02:19:58;;;;;;;6.55;4.50;;;13.50;99.90;;;;;;6240859;28;20053;-83
2023/07/27 02:23:01;;;;;;;7.65;4.13;;;13.50;99.90;;;;;;6240358;28;20050;-83
2023/07/27 02:26:03;;;;;;;6.45;4.00;;;13.60;99.90;;;;;;6240393;28;20054;-85
2023/07/27 02:29:04;;;;;;;5.57;3.88;;;13.60;99.90;;;;;;6236546;28;20558;-83
2023/07/27 02:32:08;;;;;;;5.78;3.80;;;13.60;99.90;;;;;;6230134;28;20050;-84
2023/07/27 02:35:10;;;;;;;4.82;4.43;;;13.60;99.90;;;;;;6230733;28;20413;-84
2023/07/27 02:38:12;;;;;;;10.88;4.50;;;13.60;99.90;;;;;;6230461;28;20052;-84
2023/07/27 02:41:13;;;;;;;5.70;4.00;;;13.60;99.90;;;;;;6229721;28;20050;-83
2023/07/27 02:44:15;;;;;;;9.63;3.80;;;13.60;99.90;;;;;;6227745;28;20397;-83
2023/07/27 02:47:18;;;;;;;6.10;4.15;;;13.60;99.90;;;;;;6223321;28;20493;-83
2023/07/27 02:50:20;;;;;;;7.47;5.22;;;13.70;99.90;;;;;;6224104;28;20054;-85
2023/07/27 02:53:22;;;;;;;6.18;4.85;;;13.70;99.90;;;;;;6223627;28;20046;-83
2023/07/27 02:56:24;;;;;;;6.85;4.40;;;13.70;99.90;;;;;;6224401;28;20046;-83
2023/07/27 02:59:25;;;;;;;5.78;3.90;;;13.70;99.90;;;;;;6212605;28;20054;-84
2023/07/27 03:02:28;;;;;;;5.13;4.63;;;13.80;99.90;;;;;;6218369;28;20061;-83
2023/07/27 03:05:30;;;;;;;4.10;3.70;;;13.80;99.90;;;;;;6223704;28;20053;-85
2023/07/27 03:08:32;;;;;;;5.45;4.18;;;13.80;99.90;;;;;;6223672;28;20144;-83
2023/07/27 03:11:36;;;;;;;3.88;3.47;;;13.90;99.90;;;;;;6223084;28;20046;-83
2023/07/27 03:14:38;;;;;;;6.32;3.75;;;13.80;99.90;;;;;;6222994;28;20050;-83
2023/07/27 03:17:41;;;;;;;5.85;3.65;;;13.90;99.90;;;;;;6221882;28;20057;-83
2023/07/27 03:20:43;;;;;;;4.88;4.30;;;13.90;99.90;;;;;;6223146;28;20042;-83
2023/07/27 03:23:45;;;;;;;4.45;4.05;;;13.90;99.90;;;;;;6222876;28;20049;-84
2023/07/27 03:26:46;;;;;;;10.02;4.20;;;13.90;99.90;;;;;;6228542;28;20053;-84
2023/07/27 03:29:48;;;;;;;6.50;4.25;;;13.90;99.90;;;;;;6228747;28;20528;-84
2023/07/27 03:32:51;;;;;;;5.13;4.50;;;13.90;99.90;;;;;;6225586;28;20474;-84
2023/07/27 03:35:53;;;;;;;4.90;4.40;;;13.90;99.90;;;;;;6225418;28;20046;-82
2023/07/27 03:38:55;;;;;;;3.70;3.40;;;14.00;99.90;;;;;;6229095;28;20149;-84
2023/07/27 03:41:56;;;;;;;4.47;4.07;;;14.00;99.90;;;;;;6228204;28;20532;-83
2023/07/27 03:44:58;;;;;;;4.85;3.53;;;14.00;99.90;;;;;;6228841;28;20050;-84
2023/07/27 03:48:01;;;;;;;8.07;4.28;;;14.10;99.90;;;;;;6227707;28;20046;-84
2023/07/27 03:51:03;;;;;;;6.95;4.85;;;14.10;99.90;;;;;;6226655;28;20141;-83
2023/07/27 03:54:05;;;;;;;10.55;4.30;;;14.20;99.90;;;;;;6226835;28;20042;-84
2023/07/27 03:57:07;;;;;;;4.75;3.75;;;14.20;99.90;;;;;;6227648;28;20539;-84
2023/07/27 04:00:11;;;;;;;4.43;4.03;;;14.30;99.90;;;;;;6227449;28;20046;-84
2023/07/27 04:03:14;;;;;;;8.95;4.00;;;14.40;99.90;;;;;;6226977;28;20149;-83
2023/07/27 04:06:16;;;;;;;3.45;3.15;;;14.50;99.90;;;;;;6227979;28;20058;-83
2023/07/27 04:09:17;;;;;;;5.70;3.70;;;14.50;99.90;;;;;;6237059;28;20052;-86
2023/07/27 04:12:19;;;;;;;4.72;4.22;;;14.60;99.90;;;;;;6236695;28;20041;-84
2023/07/27 04:15:21;;;;;;;4.40;3.72;;;14.70;99.90;;;;;;6236824;28;20054;-82
2023/07/27 04:18:24;;;;;;;4.38;3.38;;;14.70;99.90;;;;;;6238667;28;20054;-84
2023/07/27 04:21:26;;;;;;;5.07;4.50;;;14.80;99.90;;;;;;6239076;28;20042;-84
2023/07/27 04:24:27;;;;;;;5.90;4.32;;;14.80;99.90;;;;;;6239507;28;20046;-83
2023/07/27 04:27:29;;;;;;;10.60;3.50;;;14.90;99.90;;;;;;6239238;28;20060;-83
2023/07/27 04:30:31;;;;;;;5.53;5.03;;;14.90;99.90;;;;;;6239627;28;20050;-84
2023/07/27 04:33:34;;;;;;;3.42;3.13;;;15.00;99.90;;;;;;6242506;28;20053;-85
2023/07/27 04:36:35;;;;;;;10.90;3.97;;;15.00;99.90;;;;;;6242751;28;20052;-86
2023/07/27 04:39:37;;;;;;;4.47;3.75;;;15.00;99.90;;;;;;6242202;28;20052;-86
2023/07/27 04:42:39;;;;;;;4.35;3.20;;;15.00;99.90;;;;;;6243354;28;20090;-85
2023/07/27 04:45:40;;;;;;;4.63;3.55;;;15.00;99.90;;;;;;6242024;28;20046;-81
2023/07/27 04:48:43;;;;;;;6.72;3.35;;;15.00;99.90;;;;;;6240995;28;20113;-85
2023/07/27 04:51:45;;;;;;;6.03;3.92;;;15.10;99.90;;;;;;6237554;28;20048;-86
2023/07/27 04:54:47;;;;;;;11.93;3.83;;;15.10;99.90;;;;;;6237120;28;20050;-81
2023/07/27 04:57:48;;;;;;;9.05;3.38;;;15.10;99.90;;;;;;6236491;28;20056;-83
2023/07/27 05:00:54;;;;;;;3.67;3.38;;;15.20;99.90;;;;;;6236552;28;20050;-82
2023/07/27 05:03:57;;;;;;;6.75;3.97;;;15.20;99.90;;;;;;6237369;28;20492;-82
2023/07/27 05:06:58;;;;;;;3.92;3.60;;;15.30;99.90;;;;;;6237058;28;20480;-81
2023/07/27 05:10:00;;;;;;;7.13;4.13;;;15.30;99.90;;;;;;6238140;28;20049;-84
2023/07/27 05:13:01;;;;;;;4.88;3.97;;;15.30;99.90;;;;;;6236030;28;20345;-83
2023/07/27 05:16:04;;;;;;;5.75;3.78;;;15.40;99.90;;;;;;6237312;28;20053;-81
2023/07/27 05:19:07;;;;;;;5.25;3.35;;;15.40;99.90;;;;;;6238030;28;20068;-85
2023/07/27 05:22:09;;;;;;;4.05;3.17;;;15.50;99.90;;;;;;6236638;28;20056;-83
2023/07/27 05:25:13;;;;;;;4.07;2.85;;;15.60;99.90;;;;;;6234494;28;20050;-85
2023/07/27 05:28:15;;;;;;;3.92;3.10;;;15.70;99.90;;;;;;6235946;28;20060;-83
2023/07/27 05:31:17;;;;;;;3.72;2.88;;;15.80;99.90;;;;;;6235589;28;20057;-85
2023/07/27 05:34:20;;;;;;;3.55;3.08;;;15.90;99.90;;;;;;6237398;28;20056;-83
2023/07/27 05:37:22;;;;;;;6.63;3.25;;;16.00;99.90;;;;;;6235790;28;20085;-84
2023/07/27 05:40:23;;;;;;;7.40;3.50;;;16.10;99.90;;;;;;6237638;28;20042;-86
2023/07/27 05:43:25;;;;;;;5.15;3.70;;;16.20;99.90;;;;;;6216316;28;20660;-81
2023/07/27 05:46:27;;;;;;;4.15;2.83;;;16.40;99.90;;;;;;6244662;28;20490;-83
2023/07/27 05:49:37;;;;;;;5.20;2.65;;;16.50;99.90;;;;;;6235644;28;20132;-81
2023/07/27 05:52:38;;;;;;;7.97;3.42;;;16.70;99.90;;;;;;6232811;28;20042;-81
2023/07/27 05:55:41;;;;;;;8.25;3.05;;;16.80;99.90;;;;;;6215327;28;20052;-81
2023/07/27 05:58:42;;;;;;;5.63;3.25;;;17.10;99.90;;;;;;6216261;28;20072;-82
2023/07/27 06:01:44;;;;;;;6.85;3.22;;;17.30;99.90;;;;;;6238969;28;20067;-82
2023/07/27 06:04:48;;;;;;;3.15;2.85;;;17.50;99.90;;;;;;6245344;28;20148;-81
2023/07/27 06:07:50;;;;;;;4.80;3.03;;;17.60;99.90;;;;;;6233495;28;20375;-82
2023/07/27 06:11:00;;;;;;;4.20;3.15;;;17.70;99.90;;;;;;6235635;28;20110;-81
2023/07/27 06:14:02;;;;;;;4.43;2.85;;;17.90;99.90;;;;;;6235568;28;20050;-81
2023/07/27 06:17:04;;;;;;;3.83;3.15;;;17.80;99.90;;;;;;6235204;28;20046;-81
2023/07/27 06:20:08;;;;;;;4.50;3.30;;;17.80;99.90;;;;;;6233675;28;20046;-82
2023/07/27 06:23:10;;;;;;;3.72;3.42;;;17.80;99.90;;;;;;6235204;28;20046;-82
2023/07/27 06:26:12;;;;;;;5.57;2.45;;;17.70;99.90;;;;;;6238565;28;20052;-81
2023/07/27 06:29:13;;;;;;;5.90;2.75;;;17.60;99.90;;;;;;6233096;28;20050;-82
2023/07/27 06:32:15;;;;;;;4.60;3.13;;;17.60;99.90;;;;;;6232768;28;20046;-82
2023/07/27 06:35:18;;;;;;;4.65;3.17;;;17.50;99.90;;;;;;6233919;28;20042;-81
2023/07/27 06:38:20;;;;;;;11.05;3.92;;;17.50;99.90;;;;;;6232238;28;20046;-82
2023/07/27 06:41:25;;;;;;;6.03;4.35;;;17.50;99.90;;;;;;6234505;28;20592;-84
2023/07/27 06:44:27;;;;;;;6.28;4.15;;;17.50;99.90;;;;;;6230003;28;20050;-80
2023/07/27 06:47:28;;;;;;;3.90;3.25;;;17.50;99.90;;;;;;6227841;28;20046;-81
2023/07/27 06:50:31;;;;;;;8.07;4.32;;;17.60;99.90;;;;;;6233291;28;20056;-82
2023/07/27 06:53:33;;;;;;;6.95;3.47;;;17.60;99.90;;;;;;6232347;28;20145;-81
2023/07/27 06:56:35;;;;;;;4.35;3.30;;;17.70;99.90;;;;;;6230139;28;20054;-81
2023/07/27 06:59:37;;;;;;;3.42;3.10;;;17.70;99.90;;;;;;6232413;28;20052;-82
2023/07/27 07:02:38;;;;;;;5.00;3.15;;;17.80;99.90;;;;;;6234717;28;20053;-86
2023/07/27 07:05:41;;;;;;;7.65;3.15;;;17.90;99.90;;;;;;6233966;28;20128;-83
2023/07/27 07:08:43;;;;;;;6.75;4.05;;;18.20;99.90;;;;;;6234357;28;20053;-85
2023/07/27 07:11:45;;;;;;;5.78;3.30;;;18.40;99.90;;;;;;6234976;28;20049;-81
2023/07/27 07:14:46;;;;;;;3.83;2.83;;;18.50;99.90;;;;;;6236462;28;20057;-80
2023/07/27 07:17:48;;;;;;;4.47;3.08;;;18.50;99.90;;;;;;6231727;28;20042;-80
2023/07/27 07:20:51;;;;;;;3.55;2.75;;;18.50;99.90;;;;;;6231968;28;20050;-82
2023/07/27 07:23:53;;;;;;;3.20;2.90;;;18.50;99.90;;;;;;6235813;28;20053;-82
2023/07/27 07:26:55;;;;;;;5.85;3.33;;;18.60;99.90;;;;;;6235140;28;20050;-83
2023/07/27 07:29:57;;;;;;;4.53;2.47;;;18.60;99.90;;;;;;6234055;28;20053;-81
2023/07/27 07:32:59;;;;;;;4.28;2.92;;;18.60;99.90;;;;;;6234268;28;20054;-83
2023/07/27 07:36:02;;;;;;;4.30;3.30;;;18.60;99.90;;;;;;6235525;28;20076;-81
2023/07/27 07:39:04;;;;;;;4.15;2.85;;;18.60;99.90;;;;;;6234191;28;20057;-83
2023/07/27 07:42:06;;;;;;;3.65;2.80;;;18.70;99.90;;;;;;6235042;28;20052;-82
2023/07/27 07:45:08;;;;;;;4.18;3.28;;;18.70;99.90;;;;;;6233656;28;20057;-80
2023/07/27 07:48:10;;;;;;;3.95;2.90;;;18.80;99.90;;;;;;6237512;28;20478;-81
2023/07/27 07:51:14;;;;;;;4.63;3.00;;;18.90;99.90;;;;;;6235515;28;20060;-84
2023/07/27 07:54:15;;;;;;;6.05;3.38;;;18.90;99.90;;;;;;6229260;28;20423;-80
2023/07/27 07:57:19;;;;;;;4.80;3.30;;;18.90;99.90;;;;;;6245196;28;20056;-80
2023/07/27 08:00:21;;;;;;;10.15;3.80;;;18.90;99.90;;;;;;6260701;28;20049;-83
2023/07/27 08:03:23;;;;;;;5.55;3.03;;;19.00;99.90;;;;;;6259219;28;20050;-82
2023/07/27 08:06:26;;;;;;;3.95;2.63;;;18.90;99.90;;;;;;6262123;28;20037;-82
2023/07/27 08:09:28;;;;;;;3.25;2.63;;;19.00;99.90;;;;;;6265026;28;20155;-81
2023/07/27 08:12:29;;;;;;;4.18;3.67;;;19.00;99.90;;;;;;6261722;28;20412;-84
2023/07/27 08:15:31;;;;;;;4.60;2.80;;;19.00;99.90;;;;;;6261169;28;20530;-82
2023/07/27 08:18:33;;;;;;;3.42;2.40;;;19.00;99.90;;;;;;6262283;28;20505;-81
2023/07/27 08:21:36;;;;;;;3.63;2.35;;;19.10;99.90;;;;;;6265953;28;20041;-81
2023/07/27 08:24:37;;;;;;;6.50;3.00;;;19.30;99.90;;;;;;6264234;28;20049;-81
2023/07/27 08:27:39;;;;;;;4.97;2.83;;;19.50;99.90;;;;;;6266197;28;20041;-82
2023/07/27 08:30:42;;;;;;;3.92;2.95;;;19.60;99.90;;;;;;6264389;28;20050;-83
2023/07/27 08:33:44;;;;;;;4.30;2.78;;;19.70;99.90;;;;;;6262519;28;20076;-82
2023/07/27 08:36:50;;;;;;;3.67;3.00;;;19.70;99.90;;;;;;6264073;28;20065;-85
2023/07/27 08:39:52;;;;;;;15.35;3.40;;;19.70;99.90;;;;;;6261736;28;20049;-82
2023/07/27 08:42:53;;;;;;;2.60;2.40;;;19.80;99.90;;;;;;6260947;28;20080;-83
2023/07/27 08:45:56;;;;;;;5.38;2.95;;;19.70;99.90;;;;;;6251887;28;20041;-81
2023/07/27 08:48:58;;;;;;;5.00;3.08;;;19.70;99.90;;;;;;6253700;28;20166;-83
2023/07/27 08:52:01;;;;;;;3.40;2.92;;;19.70;99.90;;;;;;6259428;28;20049;-83
2023/07/27 08:55:03;;;;;;;3.78;3.35;;;19.70;99.90;;;;;;6259119;28;20048;-82
2023/07/27 08:58:05;;;;;;;4.03;2.38;;;19.70;99.90;;;;;;6260169;28;20057;-82
2023/07/27 09:01:06;;;;;;;3.22;2.92;;;19.60;99.90;;;;;;6260666;28;20068;-81
2023/07/27 09:04:08;;;;;;;2.90;2.63;;;19.50;99.90;;;;;;6262602;28;20052;-82
2023/07/27 09:07:11;;;;;;;4.55;3.13;;;19.40;99.90;;;;;;6264956;28;20056;-83
2023/07/27 09:10:13;;;;;;;6.35;2.75;;;19.40;99.90;;;;;;6287368;28;20053;-81
2023/07/27 09:13:15;;;;;;;3.70;2.55;;;19.30;99.90;;;;;;6286435;28;20608;-81
2023/07/27 09:16:21;;;;;;;6.47;2.70;;;19.30;99.90;;;;;;6287034;28;20045;-85
2023/07/27 09:19:24;;;;;;;4.75;2.40;;;19.20;99.90;;;;;;6284755;28;20055;-81
2023/07/27 09:22:27;;;;;;;5.30;2.25;;;19.30;99.90;;;;;;6286960;28;20049;-84
2023/07/27 09:25:29;;;;;;;3.47;2.70;;;19.20;99.90;;;;;;6284557;28;20045;-84
2023/07/27 09:28:31;;;;;;;5.32;2.40;;;19.30;99.90;;;;;;6283635;28;20045;-83
2023/07/27 09:31:35;;;;;;;3.85;3.38;;;19.30;99.90;;;;;;6285509;28;20064;-82
2023/07/27 09:34:37;;;;;;;3.03;2.08;;;19.30;99.90;;;;;;6285382;28;20037;-82
2023/07/27 09:37:43;;;;;;;3.55;2.95;;;19.30;99.90;;;;;;6287354;28;20049;-83
2023/07/27 09:40:49;;;;;;;4.78;2.13;;;19.30;99.90;;;;;;6287116;28;20041;-83
2023/07/27 09:43:52;;;;;;;3.17;2.42;;;19.40;99.90;;;;;;6285576;28;20045;-81
2023/07/27 09:46:53;;;;;;;4.95;2.83;;;19.40;99.90;;;;;;6285868;28;20366;-84
2023/07/27 09:49:58;;;;;;;3.03;2.50;;;19.50;99.90;;;;;;6286361;28;20072;-84
2023/07/27 09:53:02;;;;;;;3.85;3.25;;;19.60;99.90;;;;;;6274926;28;20050;-83
2023/07/27 09:56:05;;;;;;;4.45;2.63;;;19.60;99.90;;;;;;6251549;28;20049;-84
2023/07/27 09:59:08;;;;;;;4.13;2.88;;;19.70;99.90;;;;;;6235752;28;20060;-81
2023/07/27 10:02:09;;;;;;;4.10;3.40;;;19.80;99.90;;;;;;6237266;28;20049;-83
2023/07/27 10:05:11;;;;;;;5.13;3.35;;;20.00;99.90;;;;;;6239266;28;20053;-82
2023/07/27 10:08:16;;;;;;;7.97;4.15;;;20.20;99.90;;;;;;6238525;28;20050;-82
2023/07/27 10:11:18;;;;;;;5.70;2.75;;;20.60;99.90;;;;;;6236989;28;20054;-81
2023/07/27 10:14:20;;;;;;;4.82;2.78;;;20.90;99.90;;;;;;6237061;28;20501;-81
2023/07/27 10:17:22;;;;;;;3.13;2.72;;;21.20;99.90;;;;;;6237464;28;20054;-83
2023/07/27 10:20:26;;;;;;;3.90;2.40;;;21.50;99.90;;;;;;6236482;28;20056;-82
2023/07/27 10:23:31;;;;;;;4.20;2.15;;;22.00;99.90;;;;;;6236902;28;20564;-81
2023/07/27 10:26:50;;;;;;;3.13;2.10;;;22.50;99.90;;;;;;6236764;28;20061;-84
2023/07/27 10:29:54;;;;;;;4.88;2.45;;;22.90;99.90;;;;;;6234513;28;20119;-84
2023/07/27 10:33:09;;;;;;;3.65;2.33;;;23.00;98.90;;;;;;6236050;28;20505;-82
2023/07/27 10:36:10;;;;;;;4.57;1.90;;;23.30;98.30;;;;;;6234685;28;20046;-82
2023/07/27 10:39:18;;;;;;;3.35;2.28;;;23.40;97.00;;;;;;6234071;28;20049;-82
2023/07/27 10:42:20;;;;;;;2.85;1.80;;;23.30;96.70;;;;;;6234123;28;20053;-84
2023/07/27 10:45:25;;;;;;;3.30;1.75;;;23.20;95.40;;;;;;6233300;28;20061;-83
2023/07/27 10:48:27;;;;;;;2.15;1.90;;;22.90;94.90;;;;;;6237267;28;20053;-82
2023/07/27 10:51:29;;;;;;;2.97;2.03;;;22.70;94.50;;;;;;6232656;28;20101;-82
2023/07/27 10:54:36;;;;;;;3.58;2.10;;;22.50;94.50;;;;;;6260115;28;20055;-83
2023/07/27 10:57:38;;;;;;;;;;;22.40;94.50;;;;;;6260869;28;20049;-86
2023/07/27 11:00:43;;;;;;;5.45;1.75;;;22.30;94.70;;;;;;6260411;28;19944;-83
2023/07/27 11:03:46;;;;;;;5.10;2.33;;;22.30;94.70;;;;;;6260992;28;20055;-82
2023/07/27 11:06:47;;;;;;;2.47;2.00;;;22.30;94.60;;;;;;6260720;28;20049;-84
2023/07/27 11:09:50;;;;;;;2.40;1.80;;;22.30;94.60;;;;;;6259415;28;20045;-85
2023/07/27 11:12:54;;;;;;;10.02;2.95;;;22.10;94.20;;;;;;6259351;28;20156;-84
2023/07/27 11:15:56;;;;;;;2.53;1.63;;;22.10;94.50;;;;;;6260203;28;20055;-84
2023/07/27 11:19:00;;;;;;;3.55;2.13;;;22.10;94.30;;;;;;6259846;28;20049;-82
2023/07/27 11:22:02;;;;;;;6.00;3.00;;;22.00;94.40;;;;;;6257772;28;20065;-83
2023/07/27 11:25:06;;;;;;;3.72;2.35;;;21.80;94.90;;;;;;6256296;28;20542;-87
2023/07/27 11:31:30;;;;;;;4.25;2.30;;;21.60;96.00;;;;;;6270983;28;20420;-81
2023/07/27 11:34:32;;;;;;;2.65;2.42;;;21.60;96.40;;;;;;6261342;28;20448;-83
2023/07/27 11:37:34;;;;;;;5.15;2.63;;;21.40;97.00;;;;;;6267767;28;20244;-82
2023/07/27 11:40:37;;;;;;;2.80;2.20;;;21.30;97.60;;;;;;6280709;28;20052;-82
2023/07/27 11:43:39;;;;;;;4.10;2.50;;;21.10;98.40;;;;;;6291190;28;20055;-82
2023/07/27 11:46:45;;;;;;;5.82;2.55;;;21.00;99.20;;;;;;6289691;28;20068;-83
2023/07/27 11:49:49;;;;;;;4.45;2.55;;;20.80;99.90;;;;;;6289397;28;20053;-81
2023/07/27 11:52:57;;;;;;;5.30;2.80;;;20.70;99.90;;;;;;6288476;28;20056;-81
2023/07/27 11:56:00;;;;;;;8.77;2.58;;;20.50;99.90;;;;;;6266629;28;20049;-82
2023/07/27 11:59:02;;;;;;;3.47;2.90;;;20.40;99.90;;;;;;6261769;28;20521;-83
2023/07/27 12:02:04;;;;;;;2.90;2.60;;;20.30;99.90;;;;;;6261514;28;20045;-84
2023/07/27 12:05:06;;;;;;;5.90;2.92;;;20.40;99.90;;;;;;6258722;28;20049;-83
2023/07/27 12:08:08;;;;;;;3.08;2.47;;;20.50;99.90;;;;;;6252749;28;20053;-83
2023/07/27 12:11:11;;;;;;;6.38;2.85;;;20.50;99.90;;;;;;6253767;28;20408;-82
2023/07/27 12:14:13;;;;;;;4.53;3.17;;;20.60;99.90;;;;;;6253240;28;20508;-83
2023/07/27 12:17:14;;;;;;;7.80;2.88;;;20.70;99.90;;;;;;6255495;28;20129;-80
2023/07/27 12:20:16;;;;;;;4.93;2.40;;;21.10;99.90;;;;;;6256346;28;20045;-82
2023/07/27 12:23:18;;;;;;;6.32;2.60;;;21.30;99.90;;;;;;6258239;28;20065;-83
2023/07/27 12:26:21;;;;;;;2.47;2.10;;;21.30;99.90;;;;;;6262182;28;20055;-83
2023/07/27 12:29:23;;;;;;;11.43;3.75;;;21.50;99.90;;;;;;6254788;28;20083;-82
2023/07/27 12:32:24;;;;;;;3.83;2.67;;;21.70;99.90;;;;;;6250402;28;20060;-81
2023/07/27 12:35:27;;;;;;;4.97;2.55;;;21.80;99.90;;;;;;6255400;28;20041;-84
2023/07/27 12:38:29;;;;;;;5.70;2.33;;;22.10;99.90;;;;;;6259548;28;20057;-83
2023/07/27 12:41:32;;;;;;;7.15;2.92;;;22.30;99.90;;;;;;6257336;28;20045;-80
2023/07/27 12:44:33;;;;;;;3.08;2.20;;;22.50;99.90;;;;;;6259382;28;20061;-82
2023/07/27 12:47:35;;;;;;;4.25;2.05;;;22.70;99.90;;;;;;6259045;28;20045;-82
2023/07/27 12:50:37;;;;;;;3.10;2.75;;;22.80;99.90;;;;;;6262652;28;20096;-82
2023/07/27 12:53:39;;;;;;;4.22;1.90;;;22.80;99.90;;;;;;6258714;28;20049;-84
2023/07/27 12:56:42;;;;;;;8.02;2.20;;;22.80;99.90;;;;;;6261150;28;20046;-82
2023/07/27 12:59:43;;;;;;;2.83;1.65;;;22.80;99.90;;;;;;6261521;28;20045;-81
2023/07/27 13:02:45;;;;;;;2.25;2.03;;;22.80;99.90;;;;;;6261633;28;20444;-82
2023/07/27 13:05:48;;;;;;;3.65;2.10;;;22.80;99.90;;;;;;6258114;28;20049;-81
2023/07/27 13:08:50;;;;;;;3.60;1.95;;;22.80;99.90;;;;;;6255436;28;20042;-82
2023/07/27 13:11:53;;;;;;;3.80;2.17;;;22.80;99.90;;;;;;6257422;28;20064;-85
2023/07/27 13:14:55;;;;;;;5.28;3.63;;;22.80;99.90;;;;;;6255378;28;20212;-83
2023/07/27 13:18:02;;;;;;;2.13;1.95;;;22.90;99.90;;;;;;6255178;28;20042;-84
2023/07/27 13:21:04;;;;;;;3.33;1.47;;;23.00;99.90;;;;;;6253036;28;20057;-83
2023/07/27 13:24:06;;;;;;;1.70;1.60;;;23.10;99.90;;;;;;6255697;28;20399;-82
2023/07/27 13:27:09;;;;;;;3.55;1.73;;;23.10;99.90;;;;;;6254183;28;20069;-84
2023/07/27 13:30:11;;;;;;;5.72;2.45;;;23.20;99.90;;;;;;6252134;28;20052;-85
2023/07/27 13:33:13;;;;;;;3.47;1.40;;;23.30;99.90;;;;;;6254503;28;20052;-82
2023/07/27 13:36:15;;;;;;;2.50;2.22;;;23.20;99.90;;;;;;6261577;28;20049;-83
2023/07/27 13:39:21;;;;;;;4.88;1.67;;;23.00;99.90;;;;;;6259013;28;20076;-84
2023/07/27 13:42:26;;;;;;;3.03;2.40;;;22.90;99.90;;;;;;6256449;28;20056;-82
2023/07/27 13:45:27;;;;;;;6.20;2.08;;;22.70;99.90;;;;;;6254320;28;20053;-85
2023/07/27 13:48:29;;;;;;;4.85;1.63;;;22.60;99.90;;;;;;6257154;28;20046;-82
2023/07/27 13:51:31;;;;;;;2.05;1.80;;;22.50;99.90;;;;;;6258513;28;20113;-86
2023/07/27 13:54:33;;;;;;;1.75;1.65;;;22.50;99.90;;;;;;6257951;28;20139;-86
2023/07/27 13:57:36;;;;;;;1.63;1.42;;;22.50;99.90;;;;;;6254976;28;20487;-82
2023/07/27 14:00:38;;;;;;;1.88;1.75;;;22.50;99.90;;;;;;6256580;28;20060;-84
2023/07/27 14:03:40;;;;;;;2.25;1.92;;;22.60;99.90;;;;;;6262871;28;20045;-80
2023/07/27 14:06:41;;;;;;;2.08;1.63;;;22.60;99.90;;;;;;6273416;28;20489;-84
2023/07/27 14:09:43;;;;;;;2.20;1.63;;;22.60;99.90;;;;;;6266485;28;20068;-83
2023/07/27 14:12:46;;;;;;;2.08;1.65;;;22.60;99.90;;;;;;6253509;28;20069;-84
2023/07/27 14:15:48;;;;;;;4.03;2.08;;;22.60;99.90;;;;;;6253498;28;20049;-85
2023/07/27 14:18:50;;;;;;;5.35;2.22;;;22.60;99.90;;;;;;6254961;28;20064;-83
2023/07/27 14:21:52;;;;;;;3.63;2.20;;;22.70;99.90;;;;;;6254308;28;20187;-84
2023/07/27 14:25:01;;;;;;;5.55;2.13;;;22.80;99.90;;;;;;6325531;27;20484;-83
2023/07/27 14:28:03;;;;;;;3.80;1.92;;;23.00;99.90;;;;;;6304173;28;20511;-82
2023/07/27 14:42:45;;;;;;;3.95;1.38;;;24.10;99.90;;;;;;6329059;28;20400;-85
2023/07/27 14:45:47;;;;;;;2.35;1.50;;;24.40;99.90;;;;;;6306491;28;20045;-85
2023/07/27 14:48:49;;;;;;;4.30;1.48;;;24.50;99.40;;;;;;6305389;28;20072;-83
2023/07/27 14:51:51;;;;;;;3.30;1.83;;;24.80;99.00;;;;;;6301286;28;20060;-84
2023/07/27 14:54:57;;;;;;;2.03;1.50;;;24.80;97.90;;;;;;6302075;28;20147;-83
2023/07/27 14:58:00;;;;;;;2.50;2.10;;;24.70;97.10;;;;;;6291437;28;20044;-85
2023/07/27 15:10:19;;;;;;;2.80;1.83;;;24.80;96.40;;;;;;6149057;29;20118;-82
2023/07/27 15:13:22;;;;;;;2.45;1.67;;;24.90;96.10;;;;;;6222027;28;20047;-83
2023/07/27 15:16:25;;;;;;;3.55;1.38;;;24.80;96.10;;;;;;6300196;28;20045;-86
2023/07/27 15:19:48;;;;;;;4.70;2.90;;;24.80;95.90;;;;;;6295185;28;20057;-79
2023/07/27 15:23:23;;;;;;;3.38;1.92;;;24.80;95.80;;;;;;6296089;28;20404;-84
2023/07/27 15:26:28;;;;;;;4.88;2.17;;;24.80;95.80;;;;;;6289341;28;20057;-82
2023/07/27 15:33:55;;;;;;;6.30;1.70;;;24.60;95.60;;;;;;6303695;28;20033;-85
2023/07/27 15:36:57;;;;;;;2.17;1.98;;;24.60;95.70;;;;;;6283295;28;20069;-85
2023/07/27 15:43:38;;;;;;;4.03;2.20;;;24.50;95.40;;;;;;6264017;28;20046;-85
2023/07/27 15:46:40;;;;;;;2.60;2.17;;;24.50;95.40;;;;;;6277836;28;20072;-84
2023/07/27 15:49:43;;;;;;;4.55;2.05;;;24.40;95.40;;;;;;6277585;28;20052;-85
2023/07/27 15:52:44;;;;;;;2.92;2.10;;;24.50;95.10;;;;;;6280739;28;20047;-83
2023/07/27 15:55:46;;;;;;;6.28;2.65;;;24.40;95.20;;;;;;6280515;28;20049;-85
2023/07/27 15:58:48;;;;;;;7.90;2.25;;;24.40;95.30;;;;;;6278204;28;20049;-85
2023/07/27 16:01:49;;;;;;;4.32;2.58;;;24.50;95.20;;;;;;6279254;28;20052;-84
2023/07/27 16:04:53;;;;;;;2.88;2.22;;;24.50;95.10;;;;;;6277772;28;20049;-84
2023/07/27 16:07:55;;;;;;;4.50;1.90;;;24.50;95.00;;;;;;6277508;28;20044;-83
2023/07/27 16:10:57;;;;;;;3.70;2.38;;;24.50;94.80;;;;;;6277913;28;20051;-83
2023/07/27 16:13:59;;;;;;;4.28;2.03;;;24.40;94.90;;;;;;6277807;28;20041;-85
2023/07/27 16:17:01;;;;;;;4.63;2.08;;;24.40;94.90;;;;;;6279989;28;20540;-84
2023/07/27 16:20:05;;;;;;;2.97;2.40;;;24.40;94.30;;;;;;6280372;28;20044;-84
2023/07/27 16:23:07;;;;;;;4.30;2.40;;;24.40;94.20;;;;;;6279687;28;20053;-85